Time;durP1;ratioP1;P1;durP2;ratioP2;P2;SDS_P1;SDS_P2;PMS_P1;PMS_P2;Temp;Humidity;BMP_temperature;BMP_pressure;BME280_temperature;BME280_humidity;BME280_pressure;Samples;Min_cycle;Max_cycle;Signal;HPM_P1;HPM_P2
2023/10/19 00:00:55;;;;;;;7.33;7.23;;;11.20;99.90;;;;;;5022828;28;20459;-70
2023/10/19 00:03:23;;;;;;;7.57;7.47;;;11.30;99.90;;;;;;5012434;28;20468;-70
2023/10/19 00:05:50;;;;;;;6.90;6.80;;;11.30;99.90;;;;;;5022886;28;20468;-70
2023/10/19 00:08:19;;;;;;;6.90;6.80;;;11.30;99.90;;;;;;5019283;28;20469;-68
2023/10/19 00:10:49;;;;;;;7.10;7.00;;;11.30;99.90;;;;;;5017184;27;20465;-70
2023/10/19 00:13:19;;;;;;;7.57;7.47;;;11.40;99.90;;;;;;5023298;28;21276;-72
2023/10/19 00:15:51;;;;;;;7.00;6.90;;;11.40;99.90;;;;;;5012236;28;20468;-69
2023/10/19 00:18:23;;;;;;;6.87;6.77;;;11.40;99.90;;;;;;5012811;28;20485;-69
2023/10/19 00:20:52;;;;;;;7.50;7.40;;;11.40;99.90;;;;;;5018335;28;20795;-70
2023/10/19 00:23:25;;;;;;;7.57;7.47;;;11.50;99.90;;;;;;5009354;28;20968;-70
2023/10/19 00:25:51;;;;;;;7.37;7.27;;;11.40;99.90;;;;;;5021326;28;20828;-71
2023/10/19 00:28:18;;;;;;;7.27;7.17;;;11.50;99.90;;;;;;5016465;28;20485;-69
2023/10/19 00:30:49;;;;;;;7.17;7.07;;;11.50;99.90;;;;;;5019758;28;20293;-71
2023/10/19 00:33:20;;;;;;;6.50;6.40;;;11.50;99.90;;;;;;5022371;28;20475;-70
2023/10/19 00:36:00;;;;;;;7.77;7.67;;;11.60;99.90;;;;;;5008268;28;20501;-71
2023/10/19 00:38:40;;;;;;;8.07;7.97;;;11.60;99.90;;;;;;5016070;28;20506;-70
2023/10/19 00:41:13;;;;;;;8.23;8.13;;;11.60;99.90;;;;;;5010423;28;20553;-69
2023/10/19 00:43:44;;;;;;;7.30;7.20;;;11.60;99.90;;;;;;5014699;28;20979;-70
2023/10/19 00:46:20;;;;;;;7.17;7.07;;;11.60;99.90;;;;;;5024368;28;20469;-70
2023/10/19 00:48:50;;;;;;;8.70;8.60;;;11.60;99.90;;;;;;5017146;28;20473;-71
2023/10/19 00:51:41;;;;;;;7.30;7.20;;;11.70;99.90;;;;;;5012515;28;20465;-70
2023/10/19 00:54:13;;;;;;;7.20;7.10;;;11.50;99.90;;;;;;5019295;28;20541;-69
2023/10/19 00:56:46;;;;;;;7.70;7.60;;;11.40;99.90;;;;;;5023142;28;20457;-70
2023/10/19 00:59:14;;;;;;;7.23;7.13;;;11.40;99.90;;;;;;5022600;28;20939;-69
2023/10/19 01:01:47;;;;;;;7.20;7.10;;;11.40;99.90;;;;;;5014350;28;20831;-71
2023/10/19 01:04:20;;;;;;;7.30;7.20;;;11.50;99.90;;;;;;5006302;28;20458;-70
2023/10/19 01:07:00;;;;;;;7.47;7.37;;;11.50;99.90;;;;;;5015923;28;21220;-68
2023/10/19 01:09:28;;;;;;;6.33;6.23;;;11.50;99.90;;;;;;5017762;28;20553;-69
2023/10/19 01:11:55;;;;;;;6.70;6.60;;;11.60;99.90;;;;;;5022336;28;20489;-68
2023/10/19 01:14:23;;;;;;;6.83;6.73;;;11.50;99.90;;;;;;5016227;28;20501;-68
2023/10/19 01:16:51;;;;;;;7.30;7.20;;;11.60;99.90;;;;;;5019768;28;20468;-69
2023/10/19 01:19:20;;;;;;;6.60;6.50;;;11.60;99.90;;;;;;5009176;28;20918;-69
2023/10/19 01:21:51;;;;;;;6.87;6.77;;;11.60;99.90;;;;;;5011653;28;20481;-70
2023/10/19 01:24:27;;;;;;;6.90;6.80;;;11.70;99.90;;;;;;5016452;28;20465;-70
2023/10/19 01:26:55;;;;;;;6.80;6.70;;;11.70;99.90;;;;;;5022558;28;20545;-70
2023/10/19 01:29:27;;;;;;;7.70;7.60;;;11.80;99.90;;;;;;5017333;28;21450;-69
2023/10/19 01:31:56;;;;;;;7.57;7.47;;;11.80;99.90;;;;;;5020246;28;20855;-69
2023/10/19 01:34:26;;;;;;;7.97;7.87;;;11.90;99.90;;;;;;5014844;28;20496;-68
2023/10/19 01:36:55;;;;;;;8.20;8.10;;;11.90;99.90;;;;;;5014689;28;20474;-68
2023/10/19 01:39:23;;;;;;;8.10;8.00;;;11.90;99.90;;;;;;5013241;28;20493;-70
2023/10/19 01:41:50;;;;;;;7.10;7.00;;;12.00;99.90;;;;;;5017197;28;20457;-70
2023/10/19 01:44:16;;;;;;;8.47;8.37;;;12.00;99.90;;;;;;5017945;28;20488;-69
2023/10/19 01:46:45;;;;;;;8.40;8.30;;;12.00;99.90;;;;;;5019031;28;20808;-69
2023/10/19 01:49:11;;;;;;;8.50;8.40;;;12.00;99.90;;;;;;5016141;28;20569;-70
2023/10/19 01:51:39;;;;;;;8.37;8.27;;;12.10;99.90;;;;;;5018308;28;20569;-68
2023/10/19 01:54:06;;;;;;;9.27;9.07;;;12.20;99.90;;;;;;5006426;28;20225;-69
2023/10/19 01:56:37;;;;;;;9.43;9.23;;;12.20;99.90;;;;;;5012341;28;20462;-68
2023/10/19 01:59:05;;;;;;;8.60;8.50;;;12.30;99.90;;;;;;5020245;28;21011;-70
2023/10/19 02:01:32;;;;;;;9.50;9.30;;;12.30;99.90;;;;;;5021433;28;20468;-69
2023/10/19 02:04:00;;;;;;;8.67;8.57;;;12.30;99.90;;;;;;5021862;28;20450;-70
2023/10/19 02:06:36;;;;;;;9.63;9.43;;;12.30;99.90;;;;;;5017750;28;20965;-70
2023/10/19 02:09:09;;;;;;;9.03;8.90;;;12.40;99.90;;;;;;5015412;28;20459;-69
2023/10/19 02:11:41;;;;;;;8.43;8.33;;;12.40;99.90;;;;;;5014855;28;20473;-69
2023/10/19 02:14:13;;;;;;;8.13;8.03;;;12.40;99.90;;;;;;5013623;28;21128;-69
2023/10/19 02:16:41;;;;;;;8.67;8.57;;;12.50;99.90;;;;;;5018419;28;20488;-69
2023/10/19 02:19:07;;;;;;;9.80;9.60;;;12.50;99.90;;;;;;5021999;28;20948;-70
2023/10/19 02:21:39;;;;;;;7.97;7.87;;;12.60;99.90;;;;;;5022557;28;20466;-69
2023/10/19 02:24:07;;;;;;;8.60;8.50;;;12.60;99.90;;;;;;5015959;28;20474;-70
2023/10/19 02:26:34;;;;;;;8.40;8.30;;;12.60;99.90;;;;;;5006810;28;20461;-69
2023/10/19 02:29:07;;;;;;;8.30;8.20;;;12.60;99.90;;;;;;5016131;28;20473;-71
2023/10/19 02:31:34;;;;;;;8.60;8.50;;;12.60;99.90;;;;;;5022620;28;20475;-70
2023/10/19 02:34:00;;;;;;;9.30;9.10;;;12.70;99.90;;;;;;5019908;28;20489;-70
2023/10/19 02:36:29;;;;;;;8.23;8.13;;;12.80;99.90;;;;;;5020407;28;20576;-69
2023/10/19 02:38:54;;;;;;;8.77;8.67;;;12.80;99.90;;;;;;5021646;28;20495;-69
2023/10/19 02:41:21;;;;;;;8.37;8.27;;;12.80;99.90;;;;;;5010017;28;20462;-69
2023/10/19 02:43:50;;;;;;;7.50;7.40;;;12.80;99.90;;;;;;5022413;28;20215;-71
2023/10/19 02:46:20;;;;;;;6.90;6.80;;;12.90;99.90;;;;;;5013734;28;20477;-70
2023/10/19 02:48:49;;;;;;;8.60;8.50;;;12.80;99.90;;;;;;5021130;28;20473;-71
2023/10/19 02:51:19;;;;;;;7.77;7.67;;;12.90;99.90;;;;;;5022471;28;20465;-71
2023/10/19 02:53:46;;;;;;;8.00;7.90;;;12.90;99.90;;;;;;5017435;28;20474;-71
2023/10/19 02:56:16;;;;;;;7.40;7.30;;;12.90;99.90;;;;;;5006310;28;20472;-70
2023/10/19 02:58:48;;;;;;;7.33;7.23;;;13.00;99.90;;;;;;5016157;28;20532;-70
2023/10/19 03:01:17;;;;;;;7.37;7.27;;;12.90;99.90;;;;;;5017487;28;21213;-69
2023/10/19 03:03:46;;;;;;;7.30;7.20;;;12.90;99.90;;;;;;5014563;28;20556;-70
2023/10/19 03:06:12;;;;;;;6.50;6.40;;;13.00;99.90;;;;;;5022018;28;20461;-70
2023/10/19 03:08:39;;;;;;;7.67;7.57;;;12.90;99.90;;;;;;5006020;28;20469;-69
2023/10/19 03:11:05;;;;;;;6.03;5.93;;;13.00;99.90;;;;;;5018915;28;20530;-69
2023/10/19 03:13:33;;;;;;;7.17;7.07;;;12.90;99.90;;;;;;5022012;28;20461;-70
2023/10/19 03:16:00;;;;;;;7.07;6.97;;;13.00;99.90;;;;;;5012579;28;20317;-70
2023/10/19 03:18:28;;;;;;;7.10;7.00;;;13.10;99.90;;;;;;5007455;28;21084;-69
2023/10/19 03:20:56;;;;;;;6.37;6.27;;;13.00;99.90;;;;;;5021323;28;20454;-70
2023/10/19 03:23:23;;;;;;;6.10;6.00;;;13.10;99.90;;;;;;5016361;28;21132;-70
2023/10/19 03:28:43;;;;;;;6.50;6.40;;;13.10;99.90;;;;;;4984157;28;20534;-69
2023/10/19 03:31:13;;;;;;;6.00;5.90;;;13.10;99.90;;;;;;5016083;28;20474;-70
2023/10/19 03:33:40;;;;;;;6.03;5.93;;;13.10;99.90;;;;;;5022502;28;21035;-69
2023/10/19 03:36:13;;;;;;;5.57;5.47;;;13.10;99.90;;;;;;5016599;28;20525;-70
2023/10/19 03:38:40;;;;;;;5.63;5.53;;;13.20;99.90;;;;;;5024979;28;20584;-69
2023/10/19 03:41:09;;;;;;;7.07;6.97;;;13.20;99.90;;;;;;5011724;28;20461;-70
2023/10/19 03:43:36;;;;;;;6.60;6.50;;;13.20;99.90;;;;;;5020106;28;20482;-70
2023/10/19 03:46:14;;;;;;;5.83;5.73;;;13.20;99.90;;;;;;5025116;28;20808;-69
2023/10/19 03:48:41;;;;;;;5.10;5.07;;;13.20;99.90;;;;;;5019950;28;20498;-68
2023/10/19 03:51:13;;;;;;;5.70;5.60;;;13.10;99.90;;;;;;5021436;28;20468;-68
2023/10/19 03:53:43;;;;;;;5.70;5.60;;;13.20;99.90;;;;;;5011654;28;20511;-69
2023/10/19 03:56:11;;;;;;;6.43;6.33;;;13.10;99.90;;;;;;5018248;28;20463;-69
2023/10/19 03:58:40;;;;;;;5.73;5.63;;;13.10;99.90;;;;;;5020606;28;20611;-68
2023/10/19 04:01:07;;;;;;;6.70;6.60;;;13.10;99.90;;;;;;5020220;28;20482;-68
2023/10/19 04:03:36;;;;;;;6.17;6.07;;;13.10;99.90;;;;;;5010508;28;21095;-70
2023/10/19 04:06:05;;;;;;;6.40;6.30;;;13.20;99.90;;;;;;5024945;28;20544;-69
2023/10/19 04:08:37;;;;;;;5.60;5.50;;;13.20;99.90;;;;;;5022939;28;20466;-68
2023/10/19 04:11:11;;;;;;;6.30;6.20;;;13.10;99.90;;;;;;5025261;27;20470;-69
2023/10/19 04:13:38;;;;;;;6.50;6.40;;;13.00;99.90;;;;;;5014182;28;20525;-69
2023/10/19 04:16:08;;;;;;;5.60;5.50;;;12.90;99.90;;;;;;5021566;28;20449;-71
2023/10/19 04:18:38;;;;;;;5.73;5.63;;;12.90;99.90;;;;;;5022996;28;20549;-69
2023/10/19 04:21:05;;;;;;;6.07;5.97;;;12.90;99.90;;;;;;5023458;28;20482;-69
2023/10/19 04:23:36;;;;;;;5.77;5.67;;;13.00;99.90;;;;;;5017057;28;20519;-69
2023/10/19 04:26:10;;;;;;;6.77;6.67;;;13.00;99.90;;;;;;5020536;28;20946;-68
2023/10/19 04:28:41;;;;;;;6.30;6.20;;;13.10;99.90;;;;;;5021657;28;20472;-69
2023/10/19 04:31:13;;;;;;;5.70;5.60;;;13.10;99.90;;;;;;5012940;28;20470;-69
2023/10/19 04:33:42;;;;;;;5.43;5.33;;;13.20;99.90;;;;;;5022047;28;20988;-69
2023/10/19 04:36:11;;;;;;;5.53;5.43;;;13.20;99.90;;;;;;5020417;28;20494;-69
2023/10/19 04:38:39;;;;;;;6.67;6.57;;;13.20;99.90;;;;;;5023226;28;20504;-70
2023/10/19 04:41:08;;;;;;;6.43;6.33;;;13.30;99.90;;;;;;5019420;28;20466;-69
2023/10/19 04:43:36;;;;;;;5.57;5.47;;;13.40;99.90;;;;;;5010796;28;20898;-70
2023/10/19 04:46:12;;;;;;;5.67;5.57;;;13.40;99.90;;;;;;5018052;28;20971;-70
2023/10/19 04:48:41;;;;;;;5.90;5.80;;;13.40;99.90;;;;;;5019218;28;20467;-70
2023/10/19 04:51:10;;;;;;;6.10;6.00;;;13.50;99.90;;;;;;5024061;28;20457;-69
2023/10/19 04:53:36;;;;;;;6.20;6.10;;;13.50;99.90;;;;;;5016982;28;20466;-70
2023/10/19 04:56:09;;;;;;;6.07;5.97;;;13.50;99.90;;;;;;5018137;28;20544;-69
2023/10/19 04:58:37;;;;;;;6.80;6.70;;;13.60;99.90;;;;;;5019027;28;20504;-70
2023/10/19 05:01:05;;;;;;;6.90;6.80;;;13.60;99.90;;;;;;5019345;28;20447;-69
2023/10/19 05:03:32;;;;;;;6.20;6.10;;;13.70;99.90;;;;;;5003035;28;20844;-69
2023/10/19 05:05:59;;;;;;;6.20;6.10;;;13.70;99.90;;;;;;5014693;28;20466;-67
2023/10/19 05:08:27;;;;;;;6.20;6.10;;;13.60;99.90;;;;;;5010955;28;21158;-68
2023/10/19 05:10:56;;;;;;;6.50;6.40;;;13.50;99.90;;;;;;5016962;28;20540;-68
2023/10/19 05:13:26;;;;;;;6.10;6.00;;;13.50;99.90;;;;;;5020877;28;20454;-69
2023/10/19 05:15:53;;;;;;;5.80;5.70;;;13.40;99.90;;;;;;5017223;28;21168;-69
2023/10/19 05:18:20;;;;;;;6.07;5.97;;;13.20;99.90;;;;;;5017313;28;20465;-69
2023/10/19 05:20:47;;;;;;;5.63;5.53;;;13.20;99.90;;;;;;5014384;28;20499;-69
2023/10/19 05:23:14;;;;;;;5.50;5.40;;;13.20;99.90;;;;;;5008732;28;20474;-70
2023/10/19 05:25:41;;;;;;;5.07;5.03;;;13.20;99.90;;;;;;5012954;28;20462;-69
2023/10/19 05:28:09;;;;;;;5.13;5.03;;;13.20;99.90;;;;;;5017472;28;20508;-70
2023/10/19 05:30:37;;;;;;;5.17;5.07;;;13.10;99.90;;;;;;5016599;28;20463;-69
2023/10/19 05:33:05;;;;;;;6.03;5.93;;;13.10;99.90;;;;;;5013052;28;20465;-69
2023/10/19 05:35:34;;;;;;;4.80;4.80;;;13.20;99.90;;;;;;5012317;28;20483;-69
2023/10/19 05:38:02;;;;;;;5.17;5.10;;;13.10;99.90;;;;;;5008413;28;20466;-70
2023/10/19 05:40:30;;;;;;;6.30;6.20;;;13.10;99.90;;;;;;5015811;28;20864;-70
2023/10/19 05:42:57;;;;;;;4.80;4.80;;;13.10;99.90;;;;;;5021604;28;20939;-69
2023/10/19 05:45:26;;;;;;;5.03;5.03;;;13.10;99.90;;;;;;5015897;28;20488;-68
2023/10/19 05:47:54;;;;;;;5.70;5.60;;;13.20;99.90;;;;;;5023069;28;20822;-70
2023/10/19 05:50:21;;;;;;;5.10;5.03;;;13.20;99.90;;;;;;5014238;28;20473;-68
2023/10/19 05:52:48;;;;;;;6.00;5.90;;;13.20;99.90;;;;;;5011306;28;20948;-68
2023/10/19 05:55:16;;;;;;;5.27;5.17;;;13.20;99.90;;;;;;5021175;28;20466;-69
2023/10/19 05:57:42;;;;;;;6.30;6.20;;;13.20;99.90;;;;;;5010325;28;20552;-68
2023/10/19 06:00:15;;;;;;;4.90;4.90;;;13.30;99.90;;;;;;5015385;28;20481;-70
2023/10/19 06:02:45;;;;;;;6.20;6.10;;;13.20;99.90;;;;;;5010812;28;20497;-68
2023/10/19 06:05:15;;;;;;;5.40;5.30;;;13.20;99.90;;;;;;5015903;28;20469;-69
2023/10/19 06:07:42;;;;;;;5.40;5.30;;;13.20;99.90;;;;;;5011977;28;20472;-68
2023/10/19 06:10:15;;;;;;;5.50;5.40;;;13.20;99.90;;;;;;5080066;27;20497;-69
2023/10/19 06:12:43;;;;;;;6.00;5.90;;;13.20;99.90;;;;;;5011148;28;20499;-69
2023/10/19 06:15:10;;;;;;;5.90;5.80;;;13.20;99.90;;;;;;5015505;28;20457;-69
2023/10/19 06:17:37;;;;;;;5.90;5.80;;;13.30;99.90;;;;;;5016926;28;20887;-69
2023/10/19 06:20:07;;;;;;;4.97;4.97;;;13.30;99.90;;;;;;5012440;28;20597;-70
2023/10/19 06:22:36;;;;;;;4.97;4.97;;;13.30;99.90;;;;;;5003593;28;20462;-69
2023/10/19 06:25:06;;;;;;;5.20;5.10;;;13.30;99.90;;;;;;5022371;28;20998;-70
2023/10/19 06:27:33;;;;;;;5.73;5.63;;;13.30;99.90;;;;;;5022338;28;20502;-70
2023/10/19 06:30:00;;;;;;;6.00;5.90;;;13.30;99.90;;;;;;5016927;28;20474;-71
2023/10/19 06:32:27;;;;;;;5.53;5.43;;;13.40;99.90;;;;;;5011423;28;20984;-71
2023/10/19 06:34:54;;;;;;;5.93;5.83;;;13.40;99.90;;;;;;5009313;28;20515;-71
2023/10/19 06:37:22;;;;;;;4.80;4.80;;;13.50;99.90;;;;;;5021609;28;20514;-70
2023/10/19 06:39:51;;;;;;;5.13;5.03;;;13.50;99.90;;;;;;5015552;28;20504;-70
2023/10/19 06:42:18;;;;;;;5.87;5.77;;;13.50;99.90;;;;;;5010420;28;21002;-70
2023/10/19 06:44:45;;;;;;;5.50;5.40;;;13.50;99.90;;;;;;5007125;28;20838;-71
2023/10/19 06:47:13;;;;;;;4.40;4.40;;;13.50;99.90;;;;;;5016909;28;20459;-70
2023/10/19 06:49:40;;;;;;;5.57;5.47;;;13.50;99.90;;;;;;5010942;28;21010;-70
2023/10/19 06:52:11;;;;;;;5.63;5.53;;;13.50;99.90;;;;;;5017313;28;20463;-70
2023/10/19 06:54:38;;;;;;;5.63;5.53;;;13.50;99.90;;;;;;5017757;28;20450;-71
2023/10/19 06:57:08;;;;;;;5.90;5.80;;;13.60;99.90;;;;;;5006920;28;20874;-71
2023/10/19 06:59:34;;;;;;;5.37;5.27;;;13.60;99.90;;;;;;5004661;28;20584;-70
2023/10/19 07:02:02;;;;;;;4.70;4.70;;;13.60;99.90;;;;;;5015238;28;20921;-70
2023/10/19 07:04:29;;;;;;;5.13;5.07;;;13.60;99.90;;;;;;5023858;28;20553;-70
2023/10/19 07:06:56;;;;;;;4.80;4.80;;;13.60;99.90;;;;;;5014622;28;20968;-71
2023/10/19 07:09:24;;;;;;;6.17;6.07;;;13.60;99.90;;;;;;5044215;27;20880;-71
2023/10/19 07:11:53;;;;;;;6.00;5.90;;;13.70;99.90;;;;;;5015515;28;20956;-71
2023/10/19 07:14:24;;;;;;;6.70;6.60;;;13.80;99.90;;;;;;5011382;28;20824;-72
2023/10/19 07:16:52;;;;;;;6.70;6.60;;;13.80;99.90;;;;;;5016911;28;20466;-71
2023/10/19 07:19:19;;;;;;;6.33;6.23;;;13.90;99.90;;;;;;5017589;28;20501;-70
2023/10/19 07:21:53;;;;;;;6.50;6.40;;;14.00;99.90;;;;;;5018461;28;20550;-71
2023/10/19 07:24:23;;;;;;;5.80;5.70;;;14.00;99.90;;;;;;5015729;28;20958;-71
2023/10/19 07:27:03;;;;;;;6.13;6.03;;;14.00;99.90;;;;;;5006518;28;20563;-71
2023/10/19 07:29:33;;;;;;;6.10;6.00;;;14.00;99.90;;;;;;5038555;27;20470;-70
2023/10/19 07:32:00;;;;;;;5.97;5.87;;;14.10;99.90;;;;;;5022708;27;20962;-71
2023/10/19 07:34:28;;;;;;;5.90;5.80;;;14.00;99.90;;;;;;5013616;28;20458;-70
2023/10/19 07:36:58;;;;;;;6.50;6.40;;;14.10;99.90;;;;;;5005214;28;20531;-71
2023/10/19 07:39:26;;;;;;;6.77;6.67;;;14.20;99.90;;;;;;4990410;27;20522;-71
2023/10/19 07:41:53;;;;;;;7.07;6.97;;;14.30;99.90;;;;;;4982529;28;20475;-71
2023/10/19 07:44:20;;;;;;;6.63;6.53;;;14.40;99.90;;;;;;5008561;28;20951;-71
2023/10/19 07:46:49;;;;;;;7.07;6.97;;;14.40;99.90;;;;;;5020581;27;20459;-71
2023/10/19 07:49:15;;;;;;;7.17;7.07;;;14.60;99.90;;;;;;5024465;28;20462;-71
2023/10/19 07:51:46;;;;;;;6.80;6.70;;;14.90;99.90;;;;;;5016330;28;20475;-69
2023/10/19 07:54:13;;;;;;;7.20;7.10;;;15.20;99.90;;;;;;5012437;28;20556;-71
2023/10/19 07:56:40;;;;;;;7.47;7.37;;;15.30;99.90;;;;;;5012468;28;20476;-69
2023/10/19 07:59:07;;;;;;;8.10;8.00;;;15.50;99.90;;;;;;5019122;28;20468;-69
2023/10/19 08:01:36;;;;;;;7.77;7.67;;;15.70;99.90;;;;;;5013500;28;20578;-68
2023/10/19 08:04:05;;;;;;;8.13;8.03;;;16.00;99.90;;;;;;5011491;28;20461;-69
2023/10/19 08:06:32;;;;;;;8.40;8.30;;;16.10;99.90;;;;;;5020734;27;20457;-70
2023/10/19 08:08:59;;;;;;;9.23;9.03;;;16.20;99.90;;;;;;5026764;27;20560;-69
2023/10/19 08:11:26;;;;;;;9.40;9.20;;;16.20;99.90;;;;;;5020196;28;20752;-70
2023/10/19 08:13:54;;;;;;;9.80;9.60;;;16.30;99.90;;;;;;5014111;28;20527;-70
2023/10/19 08:16:22;;;;;;;9.70;9.50;;;16.40;99.90;;;;;;5016540;28;20469;-69
2023/10/19 08:18:52;;;;;;;10.07;9.87;;;16.60;99.90;;;;;;5015508;28;20466;-70
2023/10/19 08:21:21;;;;;;;10.27;10.07;;;16.70;99.90;;;;;;5009851;28;20824;-71
2023/10/19 08:23:48;;;;;;;10.03;9.83;;;16.70;99.90;;;;;;5017405;28;20454;-71
2023/10/19 08:26:15;;;;;;;10.20;10.00;;;16.90;99.90;;;;;;5025025;27;20457;-71
2023/10/19 08:28:43;;;;;;;10.30;10.10;;;17.00;99.90;;;;;;5013150;28;20515;-71
2023/10/19 08:31:11;;;;;;;10.70;10.43;;;17.20;99.90;;;;;;5011539;28;20488;-70
2023/10/19 08:33:38;;;;;;;11.40;11.10;;;17.20;99.90;;;;;;5010277;28;20608;-70
2023/10/19 08:36:06;;;;;;;11.00;10.70;;;17.20;99.90;;;;;;5012139;28;20916;-70
2023/10/19 08:38:34;;;;;;;11.40;11.10;;;17.20;99.90;;;;;;5005107;28;20493;-70
2023/10/19 08:41:02;;;;;;;11.70;11.40;;;17.10;99.90;;;;;;5015422;28;20501;-70
2023/10/19 08:43:29;;;;;;;11.90;11.60;;;16.90;99.90;;;;;;5017741;28;20467;-70
2023/10/19 08:45:56;;;;;;;11.87;11.57;;;16.90;99.90;;;;;;5019884;27;21090;-71
2023/10/19 08:48:23;;;;;;;11.70;11.40;;;16.80;99.90;;;;;;5013113;27;20956;-70
2023/10/19 08:50:51;;;;;;;11.57;11.27;;;16.80;99.90;;;;;;5019730;27;20457;-70
2023/10/19 08:53:19;;;;;;;11.77;11.47;;;16.70;99.90;;;;;;5012144;28;20473;-70
2023/10/19 08:55:48;;;;;;;11.33;11.03;;;16.60;99.90;;;;;;5016045;27;20835;-71
2023/10/19 08:58:16;;;;;;;11.53;11.23;;;16.60;99.90;;;;;;5012842;28;20956;-70
2023/10/19 09:00:46;;;;;;;11.30;11.00;;;16.60;99.90;;;;;;5012730;28;20584;-70
2023/10/19 09:03:16;;;;;;;11.10;10.80;;;16.60;99.90;;;;;;5012021;28;20946;-70
2023/10/19 09:05:43;;;;;;;11.17;10.87;;;16.70;99.90;;;;;;5020680;28;20543;-70
2023/10/19 09:08:16;;;;;;;11.03;10.73;;;16.80;99.90;;;;;;5015083;28;20896;-70
2023/10/19 09:10:46;;;;;;;11.00;10.70;;;16.80;99.90;;;;;;5022656;27;20487;-69
2023/10/19 09:13:18;;;;;;;11.20;10.90;;;16.90;99.90;;;;;;5021521;28;20496;-69
2023/10/19 09:15:45;;;;;;;11.40;11.10;;;17.10;99.90;;;;;;5019138;28;20473;-70
2023/10/19 09:18:16;;;;;;;11.53;11.23;;;17.10;99.90;;;;;;5016179;28;20461;-69
2023/10/19 09:20:52;;;;;;;11.50;11.20;;;17.20;99.90;;;;;;5016507;28;20533;-70
2023/10/19 09:23:21;;;;;;;11.90;11.60;;;17.30;99.90;;;;;;5013519;28;20502;-70
2023/10/19 09:25:49;;;;;;;11.73;11.43;;;17.30;99.90;;;;;;5019527;28;20849;-69
2023/10/19 09:28:18;;;;;;;11.47;11.17;;;17.30;99.90;;;;;;5013497;28;20466;-69
2023/10/19 09:30:45;;;;;;;11.67;11.37;;;17.50;99.90;;;;;;5022277;28;20457;-68
2023/10/19 09:33:17;;;;;;;12.27;11.87;;;17.70;99.90;;;;;;5023782;28;20461;-69
2023/10/19 09:35:47;;;;;;;11.80;11.50;;;17.80;99.90;;;;;;5012837;28;20513;-69
2023/10/19 09:38:15;;;;;;;12.00;11.70;;;17.90;99.90;;;;;;5017123;27;20454;-70
2023/10/19 09:40:42;;;;;;;11.97;11.67;;;18.10;99.90;;;;;;5016860;27;20611;-68
2023/10/19 09:43:15;;;;;;;12.50;12.10;;;18.20;99.90;;;;;;5011759;28;20900;-69
2023/10/19 09:45:50;;;;;;;12.90;12.50;;;18.40;99.90;;;;;;5016076;28;20485;-69
2023/10/19 09:48:19;;;;;;;12.70;12.30;;;18.60;99.90;;;;;;5023710;28;20453;-69
2023/10/19 09:50:55;;;;;;;12.40;12.00;;;18.80;99.90;;;;;;5020811;28;20469;-70
2023/10/19 09:53:26;;;;;;;12.60;12.20;;;18.80;99.90;;;;;;5016998;28;20465;-68
2023/10/19 09:55:55;;;;;;;13.20;12.80;;;18.90;99.90;;;;;;5018658;27;20465;-69
2023/10/19 09:58:27;;;;;;;13.10;12.70;;;18.90;99.90;;;;;;5024295;27;20453;-68
2023/10/19 10:00:58;;;;;;;12.70;12.30;;;18.90;99.90;;;;;;5017024;28;20492;-70
2023/10/19 10:03:44;;;;;;;13.13;12.73;;;19.10;99.90;;;;;;5020450;28;20900;-69
2023/10/19 10:06:13;;;;;;;13.10;12.70;;;19.20;99.90;;;;;;5015801;28;21050;-70
2023/10/19 10:08:42;;;;;;;13.20;12.80;;;19.30;99.90;;;;;;5021549;28;20446;-69
2023/10/19 10:11:18;;;;;;;13.10;12.70;;;19.50;99.90;;;;;;5025254;27;20462;-68
2023/10/19 10:13:46;;;;;;;12.90;12.50;;;19.60;99.90;;;;;;5017005;28;20460;-69
2023/10/19 10:16:15;;;;;;;13.10;12.70;;;19.50;99.90;;;;;;5019426;28;20466;-68
2023/10/19 10:18:44;;;;;;;13.33;12.93;;;19.80;99.90;;;;;;5014461;28;20471;-69
2023/10/19 10:21:13;;;;;;;13.20;12.80;;;20.20;99.90;;;;;;5014266;28;20829;-69
2023/10/19 10:23:43;;;;;;;13.47;13.07;;;20.50;99.90;;;;;;5015351;28;20466;-68
2023/10/19 10:26:12;;;;;;;13.33;12.93;;;20.50;99.90;;;;;;5023985;28;20488;-69
2023/10/19 10:28:39;;;;;;;13.60;13.20;;;21.40;99.90;;;;;;5038660;27;20561;-69
2023/10/19 10:31:15;;;;;;;13.40;13.00;;;22.40;99.90;;;;;;5022890;27;20463;-68
2023/10/19 10:33:46;;;;;;;14.07;13.57;;;23.40;99.90;;;;;;5011698;28;20497;-68
2023/10/19 10:36:13;;;;;;;14.73;14.23;;;24.00;99.90;;;;;;5009559;28;20504;-69
2023/10/19 10:38:40;;;;;;;14.77;14.27;;;24.10;99.90;;;;;;5011751;28;20458;-68
2023/10/19 10:41:10;;;;;;;14.20;13.70;;;23.90;99.90;;;;;;5022276;28;20536;-69
2023/10/19 10:43:51;;;;;;;14.70;14.20;;;23.50;99.90;;;;;;5024561;28;21052;-69
2023/10/19 10:46:19;;;;;;;14.80;14.30;;;22.50;99.90;;;;;;5018054;28;20464;-69
2023/10/19 10:48:48;;;;;;;14.10;13.60;;;22.10;99.90;;;;;;5008906;28;20564;-69
2023/10/19 10:51:19;;;;;;;14.50;14.00;;;22.20;99.90;;;;;;5017175;28;20473;-70
2023/10/19 10:53:48;;;;;;;14.40;13.90;;;22.10;99.90;;;;;;5011998;28;20957;-70
2023/10/19 10:56:16;;;;;;;14.27;13.77;;;22.00;99.90;;;;;;5021811;28;20810;-68
2023/10/19 10:58:43;;;;;;;14.20;13.70;;;21.90;99.90;;;;;;5019676;28;20821;-70
2023/10/19 11:01:10;;;;;;;14.07;13.57;;;21.80;99.90;;;;;;5013407;28;20937;-69
2023/10/19 11:03:39;;;;;;;14.50;14.00;;;21.70;99.90;;;;;;5022351;28;20902;-69
2023/10/19 11:06:07;;;;;;;14.53;14.03;;;21.40;99.90;;;;;;5014494;28;20979;-70
2023/10/19 11:08:35;;;;;;;14.07;13.57;;;21.40;99.90;;;;;;5026688;28;20963;-69
2023/10/19 11:11:07;;;;;;;13.90;13.50;;;21.40;99.90;;;;;;5022078;28;20476;-70
2023/10/19 11:13:35;;;;;;;13.70;13.30;;;21.20;99.90;;;;;;5014361;28;20478;-70
2023/10/19 11:16:05;;;;;;;13.70;13.30;;;21.20;99.90;;;;;;5017750;28;20548;-70
2023/10/19 11:18:35;;;;;;;14.07;13.57;;;21.40;99.90;;;;;;5023082;28;20466;-70
2023/10/19 11:21:07;;;;;;;14.00;13.50;;;21.40;99.90;;;;;;5009745;28;20484;-69
2023/10/19 11:23:42;;;;;;;13.97;13.50;;;21.50;99.90;;;;;;5021365;28;20462;-70
2023/10/19 11:26:09;;;;;;;14.07;13.60;;;21.80;99.90;;;;;;5017191;28;20461;-68
2023/10/19 11:28:38;;;;;;;13.60;13.20;;;21.90;99.90;;;;;;5020970;28;20496;-70
2023/10/19 11:31:13;;;;;;;13.70;13.30;;;21.90;99.90;;;;;;5006999;28;20466;-69
2023/10/19 11:33:41;;;;;;;14.00;13.50;;;22.00;99.90;;;;;;5016895;28;20517;-70
2023/10/19 11:36:12;;;;;;;13.60;13.20;;;22.00;99.90;;;;;;5012492;28;20495;-71
2023/10/19 11:38:40;;;;;;;13.80;13.30;;;22.00;99.90;;;;;;5021804;28;20464;-70
2023/10/19 11:41:07;;;;;;;14.40;13.90;;;21.90;99.90;;;;;;5022911;28;20479;-70
2023/10/19 11:43:35;;;;;;;14.10;13.60;;;21.80;99.90;;;;;;5018660;28;20464;-69
2023/10/19 11:46:05;;;;;;;13.90;13.50;;;21.70;99.90;;;;;;5022669;28;20488;-70
2023/10/19 11:48:33;;;;;;;14.10;13.60;;;21.60;99.90;;;;;;5010547;28;20497;-71
2023/10/19 11:51:00;;;;;;;13.90;13.40;;;21.60;99.90;;;;;;5019608;27;20464;-69
2023/10/19 11:53:32;;;;;;;13.70;13.30;;;21.50;99.90;;;;;;5018250;28;20470;-69
2023/10/19 11:56:00;;;;;;;14.00;13.50;;;21.60;99.90;;;;;;5022090;27;20527;-70
2023/10/19 11:58:27;;;;;;;13.70;13.30;;;21.70;99.90;;;;;;5021017;27;20520;-69
2023/10/19 12:00:55;;;;;;;13.70;13.30;;;21.50;99.90;;;;;;5021606;28;20487;-70
2023/10/19 12:03:22;;;;;;;14.07;13.57;;;21.40;99.90;;;;;;5012571;28;20554;-69
2023/10/19 12:05:52;;;;;;;13.70;13.30;;;21.40;99.90;;;;;;5014444;28;20459;-68
2023/10/19 12:08:19;;;;;;;13.80;13.40;;;21.30;99.90;;;;;;5009321;27;20571;-70
2023/10/19 12:10:48;;;;;;;13.90;13.50;;;21.10;99.90;;;;;;5021493;28;20480;-69
2023/10/19 12:13:16;;;;;;;14.10;13.60;;;21.00;99.90;;;;;;5030090;27;21167;-69
2023/10/19 12:15:51;;;;;;;13.80;13.40;;;20.90;99.90;;;;;;5020551;28;20814;-70
2023/10/19 12:18:20;;;;;;;13.90;13.50;;;20.60;99.90;;;;;;5013440;28;20861;-69
2023/10/19 12:20:47;;;;;;;14.33;13.83;;;20.50;99.90;;;;;;5021124;28;20454;-70
2023/10/19 12:23:14;;;;;;;14.17;13.67;;;20.40;99.90;;;;;;5011599;28;20465;-69
2023/10/19 12:25:42;;;;;;;13.80;13.40;;;20.40;99.90;;;;;;5024844;28;20454;-71
2023/10/19 12:28:13;;;;;;;13.50;13.10;;;20.40;99.90;;;;;;5018542;28;20955;-69
2023/10/19 12:30:42;;;;;;;13.80;13.40;;;20.20;99.90;;;;;;5025068;28;20530;-69
2023/10/19 12:33:12;;;;;;;14.13;13.63;;;20.10;99.90;;;;;;5020936;28;20531;-70
2023/10/19 12:35:49;;;;;;;13.63;13.23;;;20.00;99.90;;;;;;5013677;28;20561;-69
2023/10/19 12:38:16;;;;;;;13.60;13.20;;;19.90;99.90;;;;;;5011780;28;20463;-69
2023/10/19 12:40:46;;;;;;;13.43;13.03;;;20.00;99.90;;;;;;5025426;28;20552;-70
2023/10/19 12:43:14;;;;;;;13.17;12.77;;;20.00;99.90;;;;;;5022457;28;20493;-68
2023/10/19 12:45:43;;;;;;;13.40;13.00;;;19.80;99.90;;;;;;5020673;27;20783;-68
2023/10/19 12:48:10;;;;;;;13.50;13.10;;;19.60;99.90;;;;;;5021538;27;20556;-68
2023/10/19 12:50:38;;;;;;;13.10;12.70;;;19.60;99.90;;;;;;5020061;27;20464;-68
2023/10/19 12:53:07;;;;;;;13.00;12.60;;;19.40;99.90;;;;;;5013681;27;20586;-70